METAR Data
IDs: Format: Raw Decoded Include TAF

Data at: 1643 UTC 20 Sep 2018

KHUF 201553Z 19009KT 10SM CLR 31/22 A3005 RMK AO2 SLP168 T03060222